createdAt,value
2023-11-18T00:02:35.316Z,3.14
2023-11-18T00:07:41.985Z,3.17
2023-11-18T00:12:44.458Z,3.21
2023-11-18T00:17:46.603Z,3.22
2023-11-18T00:22:48.753Z,3.20
2023-11-18T00:27:50.714Z,3.16
2023-11-18T00:32:53.761Z,3.11
2023-11-18T00:37:56.007Z,3.12
2023-11-18T00:42:58.393Z,3.09
2023-11-18T00:48:00.542Z,3.07
2023-11-18T00:53:02.722Z,3.05
2023-11-18T00:58:06.182Z,3.05
2023-11-18T01:03:09.560Z,3.05
2023-11-18T01:08:11.767Z,3.02
2023-11-18T01:13:13.895Z,2.98
2023-11-18T01:18:16.460Z,2.94
2023-11-18T01:23:18.652Z,2.93
2023-11-18T01:28:20.650Z,2.87
2023-11-18T01:33:24.235Z,2.69
2023-11-18T01:38:27.330Z,2.60
2023-11-18T01:43:29.608Z,2.51
2023-11-18T01:48:35.016Z,2.51
2023-11-18T01:53:43.615Z,2.52
2023-11-18T01:58:46.404Z,2.53
2023-11-18T02:03:48.708Z,2.55
2023-11-18T02:08:50.933Z,2.63
2023-11-18T02:13:55.707Z,2.65
2023-11-18T02:18:57.819Z,2.68
2023-11-18T02:23:59.948Z,2.71
2023-11-18T02:29:02.124Z,2.77
2023-11-18T02:34:16.938Z,2.83
2023-11-18T02:39:30.059Z,2.88
2023-11-18T02:44:33.907Z,2.92
2023-11-18T02:49:37.136Z,2.94
2023-11-18T02:54:39.725Z,2.93
2023-11-18T02:59:41.825Z,2.89
2023-11-18T03:04:45.504Z,2.90
2023-11-18T03:09:48.231Z,2.94
2023-11-18T03:14:50.795Z,2.88
2023-11-18T03:19:53.029Z,2.78
2023-11-18T03:24:55.374Z,2.79
2023-11-18T03:29:57.486Z,2.82
2023-11-18T03:35:02.768Z,2.81
2023-11-18T03:40:06.298Z,2.78
2023-11-18T03:45:10.782Z,2.70
2023-11-18T03:50:14.908Z,2.69
2023-11-18T03:55:17.312Z,2.63
2023-11-18T04:00:21.041Z,2.61
2023-11-18T04:05:23.483Z,2.64
2023-11-18T04:10:25.632Z,2.62
2023-11-18T04:15:28.189Z,2.60
2023-11-18T04:20:30.281Z,2.65
2023-11-18T04:25:32.303Z,2.69
2023-11-18T04:30:34.389Z,2.72
2023-11-18T04:35:36.434Z,2.75
2023-11-18T04:40:39.985Z,2.77
2023-11-18T04:45:43.930Z,2.80
2023-11-18T04:50:46.583Z,2.75
2023-11-18T04:55:48.778Z,2.78
2023-11-18T05:00:51.727Z,2.81
2023-11-18T05:05:57.734Z,2.86
2023-11-18T05:11:00.683Z,2.88
2023-11-18T05:16:04.274Z,2.87
2023-11-18T05:21:07.000Z,2.88
2023-11-18T05:26:10.234Z,2.86
2023-11-18T05:31:13.172Z,2.77
2023-11-18T05:36:15.221Z,2.63
2023-11-18T05:41:24.837Z,2.49
2023-11-18T05:46:31.072Z,2.45
2023-11-18T05:51:33.518Z,2.41
2023-11-18T05:56:35.694Z,2.41
2023-11-18T06:01:38.813Z,2.43
2023-11-18T06:06:41.007Z,2.46
2023-11-18T06:11:43.070Z,2.46
2023-11-18T06:16:45.158Z,2.43
2023-11-18T06:21:47.260Z,2.42
2023-11-18T06:26:50.754Z,2.42
2023-11-18T06:31:54.078Z,2.42
2023-11-18T06:36:57.452Z,2.45
2023-11-18T06:42:01.344Z,2.48
2023-11-18T06:47:06.456Z,2.53
2023-11-18T06:52:11.166Z,2.56
2023-11-18T06:57:13.589Z,2.59
2023-11-18T07:02:16.841Z,2.65
2023-11-18T07:07:19.312Z,2.68
2023-11-18T07:12:21.871Z,2.70
2023-11-18T07:17:25.012Z,2.71
2023-11-18T07:22:28.019Z,2.73
2023-11-18T07:27:30.207Z,2.67
2023-11-18T07:32:32.348Z,2.63
2023-11-18T07:37:34.785Z,2.65
2023-11-18T07:42:36.873Z,2.62
2023-11-18T07:47:40.833Z,2.62
2023-11-18T07:52:42.964Z,2.73
2023-11-18T07:57:45.248Z,2.85
2023-11-18T08:02:47.596Z,2.89
2023-11-18T08:07:50.846Z,2.88
2023-11-18T08:12:55.517Z,2.94
2023-11-18T08:17:57.553Z,2.99
2023-11-18T08:23:00.560Z,3.04
2023-11-18T08:28:04.908Z,3.05
2023-11-18T08:33:10.339Z,2.96
2023-11-18T08:38:13.886Z,2.89
2023-11-18T08:43:17.984Z,2.81
2023-11-18T08:48:20.353Z,2.67
2023-11-18T08:53:27.840Z,2.56
2023-11-18T08:58:35.160Z,2.48
2023-11-18T09:03:37.856Z,2.45
2023-11-18T09:08:44.019Z,2.46
2023-11-18T09:13:52.765Z,2.53
2023-11-18T09:18:54.952Z,2.52
2023-11-18T09:24:00.311Z,2.54
2023-11-18T09:29:05.418Z,2.57
2023-11-18T09:34:08.117Z,2.54
2023-11-18T09:39:17.652Z,2.48
2023-11-18T09:44:19.731Z,2.43
2023-11-18T09:49:35.275Z,2.38
2023-11-18T09:54:54.544Z,2.43
2023-11-18T10:00:20.961Z,2.42
2023-11-18T10:05:28.269Z,2.38
2023-11-18T10:10:38.189Z,2.36
2023-11-18T10:15:41.156Z,2.29
2023-11-18T10:20:43.546Z,2.24
2023-11-18T10:25:50.382Z,2.22
2023-11-18T10:30:52.578Z,2.20
2023-11-18T10:35:56.977Z,2.24
2023-11-18T10:41:02.705Z,2.23
2023-11-18T10:46:08.642Z,2.14
2023-11-18T10:51:15.242Z,2.07
2023-11-18T10:56:30.526Z,1.95
2023-11-18T11:01:35.138Z,1.85
2023-11-18T11:06:42.999Z,1.81
2023-11-18T11:11:56.331Z,1.87
2023-11-18T11:17:12.594Z,1.92
2023-11-18T11:22:22.468Z,1.91
2023-11-18T11:27:41.112Z,1.91
2023-11-18T11:32:49.502Z,1.90
2023-11-18T11:37:55.478Z,1.88
2023-11-18T11:42:58.801Z,1.83
2023-11-18T11:48:17.288Z,1.78
2023-11-18T11:53:25.218Z,1.79
2023-11-18T11:58:28.623Z,1.69
2023-11-18T12:03:37.725Z,1.87
2023-11-18T12:08:42.861Z,1.92
2023-11-18T12:14:26.073Z,1.97
2023-11-18T12:19:37.550Z,2.01
2023-11-18T12:24:44.126Z,2.02
2023-11-18T12:29:46.122Z,2.01
2023-11-18T12:34:55.480Z,2.08
2023-11-18T12:40:25.732Z,2.19
2023-11-18T12:45:55.055Z,2.29
2023-11-18T12:50:57.564Z,2.37
2023-11-18T12:56:02.479Z,2.46
2023-11-18T13:01:06.061Z,2.53
2023-11-18T13:06:08.387Z,2.55
2023-11-18T13:11:17.766Z,2.44
2023-11-18T13:16:19.878Z,2.40
2023-11-18T13:21:23.878Z,2.36
2023-11-18T13:26:26.091Z,2.33
2023-11-18T13:31:28.345Z,2.36
2023-11-18T13:36:31.969Z,2.38
2023-11-18T13:41:34.411Z,2.37
2023-11-18T13:46:41.399Z,2.31
2023-11-18T13:51:45.314Z,2.23
2023-11-18T13:56:47.273Z,2.20
2023-11-18T14:01:50.251Z,2.16
2023-11-18T14:06:54.565Z,2.09
2023-11-18T14:11:57.697Z,2.03
2023-11-18T14:17:00.285Z,1.96
2023-11-18T14:22:07.835Z,1.92
2023-11-18T14:27:11.584Z,1.92
2023-11-18T14:32:15.493Z,1.91
2023-11-18T14:37:17.910Z,1.89
2023-11-18T14:42:22.537Z,1.91
2023-11-18T14:47:24.445Z,1.90
2023-11-18T14:52:26.372Z,1.88
2023-11-18T14:57:28.562Z,1.86
2023-11-18T15:02:30.674Z,1.80
2023-11-18T15:07:33.139Z,1.78
2023-11-18T15:12:35.725Z,1.73
2023-11-18T15:17:46.349Z,1.72
2023-11-18T15:22:50.640Z,1.74
2023-11-18T15:27:52.588Z,1.74
2023-11-18T15:32:54.926Z,1.78
2023-11-18T15:37:56.887Z,1.78
2023-11-18T15:42:58.834Z,1.78
2023-11-18T15:48:01.915Z,1.80
2023-11-18T15:53:04.914Z,1.80
2023-11-18T15:58:07.206Z,1.77
2023-11-18T16:03:09.814Z,1.77
2023-11-18T16:08:12.505Z,1.75
2023-11-18T16:13:14.772Z,1.73
2023-11-18T16:18:17.251Z,1.72
2023-11-18T16:23:19.475Z,1.69
2023-11-18T16:28:21.742Z,1.66
2023-11-18T16:33:27.239Z,1.65
2023-11-18T16:38:31.904Z,1.62
2023-11-18T16:43:34.474Z,1.62
2023-11-18T16:48:36.904Z,1.63
2023-11-18T16:53:39.003Z,1.64
2023-11-18T16:58:40.923Z,1.63
2023-11-18T17:03:43.180Z,1.63
2023-11-18T17:08:45.748Z,1.61
2023-11-18T17:13:49.169Z,1.58
2023-11-18T17:18:52.445Z,1.57
2023-11-18T17:23:54.824Z,1.60
2023-11-18T17:28:56.946Z,1.62
2023-11-18T17:33:59.085Z,1.56
2023-11-18T17:39:01.167Z,1.57
2023-11-18T17:44:03.285Z,1.64
2023-11-18T17:49:06.076Z,1.67
2023-11-18T17:54:08.103Z,1.63
2023-11-18T17:59:10.208Z,1.64
2023-11-18T18:04:12.378Z,1.67
2023-11-18T18:09:15.517Z,1.70
2023-11-18T18:14:17.537Z,1.64
2023-11-18T18:19:19.616Z,1.56
2023-11-18T18:24:21.567Z,1.49
2023-11-18T18:29:23.580Z,1.44
2023-11-18T18:34:26.141Z,1.38
2023-11-18T18:39:28.555Z,1.35
2023-11-18T18:44:30.566Z,1.42
2023-11-18T18:49:32.460Z,1.43
2023-11-18T18:54:34.585Z,1.43
2023-11-18T18:59:37.295Z,1.35
2023-11-18T19:04:39.367Z,1.31
2023-11-18T19:09:42.784Z,1.29
2023-11-18T19:14:44.899Z,1.22
2023-11-18T19:19:47.675Z,1.18
2023-11-18T19:24:49.774Z,1.17
2023-11-18T19:29:51.861Z,1.17
2023-11-18T19:34:58.154Z,1.17
2023-11-18T19:40:00.254Z,1.15
2023-11-18T19:45:03.431Z,1.15
2023-11-18T19:50:06.229Z,1.18
2023-11-18T19:55:10.514Z,1.21
2023-11-18T20:00:13.654Z,1.16
2023-11-18T20:05:17.413Z,1.13
2023-11-18T20:10:19.480Z,1.17
2023-11-18T20:15:28.490Z,1.20
2023-11-18T20:20:32.921Z,1.22
2023-11-18T20:25:36.389Z,1.16
2023-11-18T20:30:41.583Z,1.14
2023-11-18T20:35:44.036Z,1.04
2023-11-18T20:40:47.472Z,0.82
2023-11-18T20:45:53.636Z,0.64
2023-11-18T20:50:55.783Z,0.44
2023-11-18T20:55:58.122Z,0.22
2023-11-18T21:01:02.137Z,-0.01
2023-11-18T21:06:06.073Z,-0.16
2023-11-18T21:11:08.618Z,-0.24
2023-11-18T21:16:10.981Z,-0.28
2023-11-18T21:21:13.866Z,-0.30
2023-11-18T21:26:15.856Z,-0.36
2023-11-18T21:31:18.105Z,-0.50
2023-11-18T21:36:22.903Z,-0.65
2023-11-18T21:41:24.999Z,-0.78
2023-11-18T21:46:28.565Z,-0.90
2023-11-18T21:51:33.620Z,-1.05
2023-11-18T21:56:36.037Z,-1.16
2023-11-18T22:01:38.850Z,-1.18
2023-11-18T22:06:45.297Z,-1.12
2023-11-18T22:11:50.628Z,-1.06
2023-11-18T22:16:52.695Z,-1.10
2023-11-18T22:21:57.054Z,-1.24
2023-11-18T22:27:00.092Z,-1.44
2023-11-18T22:32:04.575Z,-1.64
2023-11-18T22:37:07.227Z,-1.86
2023-11-18T22:42:14.534Z,-1.99
2023-11-18T22:47:16.600Z,-2.02
2023-11-18T22:52:18.729Z,-1.99
2023-11-18T22:57:20.799Z,-1.99
2023-11-18T23:02:24.121Z,-2.08
2023-11-18T23:07:26.185Z,-2.18
2023-11-18T23:12:29.708Z,-2.29
2023-11-18T23:17:52.045Z,-2.36
2023-11-18T23:22:54.413Z,-2.30
2023-11-18T23:33:02.707Z,-2.24
2023-11-18T23:38:06.776Z,-2.28
2023-11-18T23:43:08.947Z,-2.40
2023-11-18T23:48:11.745Z,-2.53
2023-11-18T23:53:13.825Z,-2.64
2023-11-18T23:58:16.079Z,-2.70
